Time;durP1;ratioP1;P1;durP2;ratioP2;P2;SDS_P1;SDS_P2;PMS_P1;PMS_P2;Temp;Humidity;BMP_temperature;BMP_pressure;BME280_temperature;BME280_humidity;BME280_pressure;Samples;Min_cycle;Max_cycle;Signal;HPM_P1;HPM_P2
2022/10/31 00:02:14;;;;;;;22.40;13.62;;;;;;;7.88;81.46;100518.73;2180297;80;21013;-73
2022/10/31 00:05:15;;;;;;;15.00;9.98;;;;;;;7.84;81.34;100525.61;2180846;81;21559;-74
2022/10/31 00:08:17;;;;;;;21.62;13.50;;;;;;;7.80;81.48;100528.69;2189732;80;21037;-73
2022/10/31 00:11:21;;;;;;;21.70;13.53;;;;;;;7.78;81.56;100533.27;2187829;80;21160;-73
2022/10/31 00:14:22;;;;;;;30.32;15.48;;;;;;;7.78;81.80;100526.66;2185808;81;21040;-75
2022/10/31 00:17:23;;;;;;;31.52;15.90;;;;;;;7.72;81.79;100528.05;2195002;80;21128;-73
2022/10/31 00:20:25;;;;;;;21.57;13.30;;;;;;;7.68;81.88;100525.32;2182172;81;21081;-73
2022/10/31 00:23:25;;;;;;;27.73;15.90;;;;;;;7.66;81.73;100531.71;2180999;80;21102;-73
2022/10/31 00:26:30;;;;;;;31.37;16.40;;;;;;;7.62;81.69;100524.06;2186672;80;20995;-73
2022/10/31 00:29:32;;;;;;;24.20;14.63;;;;;;;7.61;81.97;100531.66;2178312;80;21073;-73
2022/10/31 00:32:34;;;;;;;36.20;14.30;;;;;;;7.58;81.64;100531.93;2185256;80;20982;-75
2022/10/31 00:35:34;;;;;;;34.13;17.02;;;;;;;7.57;81.73;100533.38;2188729;80;21046;-73
2022/10/31 00:38:36;;;;;;;32.73;17.15;;;;;;;7.51;81.49;100529.47;2189652;80;21403;-74
2022/10/31 00:41:37;;;;;;;39.67;17.87;;;;;;;7.48;81.42;100532.88;2186213;80;21457;-75
2022/10/31 00:44:39;;;;;;;101.60;26.23;;;;;;;7.46;81.34;100530.85;2185510;80;20982;-75
2022/10/31 00:47:40;;;;;;;47.62;23.55;;;;;;;7.39;81.63;100531.41;2189500;80;21481;-75
2022/10/31 00:50:42;;;;;;;60.92;25.37;;;;;;;7.34;81.62;100539.38;2190049;80;21008;-74
2022/10/31 00:53:43;;;;;;;56.73;22.32;;;;;;;7.29;81.56;100543.77;2192795;81;21123;-73
2022/10/31 00:56:45;;;;;;;47.58;23.60;;;;;;;7.24;81.99;100540.69;2190928;80;21471;-74
2022/10/31 00:59:46;;;;;;;68.07;21.15;;;;;;;7.25;82.00;100537.56;2191790;80;21442;-74
2022/10/31 01:02:47;;;;;;;41.35;22.07;;;;;;;7.18;82.01;100528.87;2188100;80;21591;-74
2022/10/31 01:06:08;;;;;;;74.27;22.13;;;;;;;7.16;82.01;100532.61;2183232;81;20943;-74
2022/10/31 01:09:09;;;;;;;;;;;;;;;7.13;81.95;100532.39;2190102;80;21060;-73
2022/10/31 01:12:13;;;;;;;;;;;;;;;7.10;82.02;100532.66;2185488;80;20310;-73
2022/10/31 01:15:21;;;;;;;24.70;15.60;;;;;;;7.09;82.04;100536.25;2182110;80;20171;-73
2022/10/31 01:18:24;;;;;;;31.10;15.45;;;;;;;7.07;81.80;100535.57;2191049;80;21470;-73
2022/10/31 01:21:28;;;;;;;23.18;14.43;;;;;;;7.05;81.72;100537.50;2186185;80;20990;-73
2022/10/31 01:24:31;;;;;;;19.62;13.10;;;;;;;6.99;81.39;100534.08;2188468;80;21006;-73
2022/10/31 01:27:33;;;;;;;25.62;15.45;;;;;;;6.94;81.21;100546.83;2189233;80;20998;-74
2022/10/31 01:30:34;;;;;;;26.77;15.48;;;;;;;6.89;81.33;100543.26;2176970;80;22094;-73
2022/10/31 01:33:37;;;;;;;24.75;15.20;;;;;;;6.88;81.41;100548.69;2193117;80;20986;-73
2022/10/31 01:36:41;;;;;;;30.48;15.38;;;;;;;6.85;81.52;100544.51;2189166;80;21026;-74
2022/10/31 01:39:44;;;;;;;26.50;14.93;;;;;;;6.81;81.26;100547.04;2185772;80;21151;-73
2022/10/31 01:42:45;;;;;;;27.73;15.35;;;;;;;6.79;81.36;100545.04;2182493;81;21068;-74
2022/10/31 01:45:54;;;;;;;27.65;15.48;;;;;;;6.78;81.49;100545.16;2183143;80;21097;-80
2022/10/31 01:49:07;;;;;;;27.40;15.55;;;;;;;6.81;81.74;100545.72;2188488;80;22274;-73
2022/10/31 01:52:25;;;;;;;51.55;22.87;;;;;;;6.83;81.75;100539.01;2183845;80;21006;-73
2022/10/31 01:55:33;;;;;;;47.48;23.27;;;;;;;6.83;82.16;100552.20;2179922;80;21073;-73
2022/10/31 01:58:34;;;;;;;31.50;18.12;;;;;;;6.86;82.24;100546.66;2184134;80;21050;-73
2022/10/31 02:01:37;;;;;;;25.17;16.07;;;;;;;6.83;82.30;100543.80;2187924;80;21037;-76
2022/10/31 02:04:38;;;;;;;31.25;16.60;;;;;;;6.83;82.25;100537.69;2183059;81;20983;-75
2022/10/31 02:07:54;;;;;;;27.93;14.95;;;;;;;6.82;82.12;100539.98;2174896;81;21096;-73
2022/10/31 02:11:00;;;;;;;29.18;15.18;;;;;;;6.82;82.03;100544.77;2184325;80;21011;-77
2022/10/31 02:14:02;;;;;;;33.42;16.07;;;;;;;6.78;81.74;100551.75;2193068;80;21085;-74
2022/10/31 02:17:04;;;;;;;24.75;14.20;;;;;;;6.76;81.66;100549.27;2156008;81;21022;-75
2022/10/31 02:20:16;;;;;;;21.07;13.50;;;;;;;6.74;81.62;100552.02;2188753;80;21509;-74
2022/10/31 02:23:38;;;;;;;26.25;14.70;;;;;;;6.72;81.29;100551.80;2187511;80;21002;-77
2022/10/31 02:27:04;;;;;;;22.45;14.10;;;;;;;6.69;81.46;100554.70;2190455;80;21124;-77
2022/10/31 02:30:18;;;;;;;20.82;13.13;;;;;;;6.70;81.62;100555.90;2186869;80;21081;-74
2022/10/31 02:33:49;;;;;;;22.60;12.45;;;;;;;6.65;81.67;100557.25;2189761;80;21619;-74
2022/10/31 02:37:05;;;;;;;19.55;12.80;;;;;;;6.58;81.38;100557.41;2185820;80;21054;-75
2022/10/31 02:40:23;;;;;;;27.07;12.88;;;;;;;6.49;81.66;100549.80;2191123;80;21060;-75
2022/10/31 02:44:06;;;;;;;17.48;11.95;;;;;;;6.50;81.93;100556.73;2181904;80;21687;-74
2022/10/31 02:47:24;;;;;;;20.23;13.05;;;;;;;6.47;81.53;100560.46;2177773;81;21033;-77
2022/10/31 02:50:35;;;;;;;23.98;13.70;;;;;;;6.43;81.51;100565.66;2185557;81;21481;-74
2022/10/31 02:53:38;;;;;;;28.15;14.00;;;;;;;6.41;81.60;100562.79;2176442;81;21007;-75
2022/10/31 02:56:40;;;;;;;21.97;12.63;;;;;;;6.36;82.08;100564.97;2185786;80;21073;-76
2022/10/31 02:59:49;;;;;;;20.92;13.83;;;;;;;6.36;82.28;100566.28;2197851;80;21108;-81
2022/10/31 03:03:19;;;;;;;20.05;13.00;;;;;;;6.37;82.29;100566.66;2182201;80;21519;-75
2022/10/31 03:06:31;;;;;;;22.20;13.43;;;;;;;6.28;82.15;100559.05;2194886;80;21057;-74
2022/10/31 03:10:03;;;;;;;21.00;13.15;;;;;;;6.23;82.55;100568.64;2191990;80;21525;-75
2022/10/31 03:13:17;;;;;;;20.80;13.35;;;;;;;6.20;82.67;100567.58;2182470;81;20983;-76
2022/10/31 03:16:41;;;;;;;17.10;12.18;;;;;;;6.19;82.98;100565.89;2153014;80;21013;-76
2022/10/31 03:19:48;;;;;;;19.87;12.88;;;;;;;6.19;82.83;100567.69;2178420;80;21537;-76
2022/10/31 03:22:49;;;;;;;28.52;16.87;;;;;;;6.16;82.71;100566.14;2178430;80;21034;-76
2022/10/31 03:25:53;;;;;;;33.18;18.45;;;;;;;6.08;82.99;100573.84;2158508;81;21454;-77
2022/10/31 03:29:10;;;;;;;30.95;17.45;;;;;;;6.02;82.98;100577.82;2171859;80;21044;-75
2022/10/31 03:32:18;;;;;;;26.25;15.43;;;;;;;6.02;83.11;100583.58;2180515;80;21092;-76
2022/10/31 03:35:24;;;;;;;24.02;16.12;;;;;;;6.02;82.82;100574.36;2151727;80;21033;-82
2022/10/31 03:38:26;;;;;;;22.13;15.65;;;;;;;6.03;82.83;100584.78;2157872;80;21060;-76
2022/10/31 03:41:33;;;;;;;24.55;14.87;;;;;;;6.01;82.54;100588.50;2194822;80;21097;-75
2022/10/31 03:44:35;;;;;;;25.00;14.87;;;;;;;6.03;82.83;100591.86;2180890;80;21644;-75
2022/10/31 03:47:38;;;;;;;20.08;13.43;;;;;;;6.02;82.60;100588.36;2177293;80;21009;-75
2022/10/31 03:50:54;;;;;;;18.77;12.45;;;;;;;6.01;82.54;100585.38;2176721;80;21002;-75
2022/10/31 03:54:03;;;;;;;18.80;12.75;;;;;;;6.01;82.53;100591.97;2167971;80;20986;-75
2022/10/31 03:57:31;;;;;;;22.35;12.33;;;;;;;6.00;82.48;100588.16;2166398;80;21026;-75
2022/10/31 04:00:35;;;;;;;17.60;11.50;;;;;;;6.01;82.48;100589.81;2178759;81;20998;-74
2022/10/31 04:03:38;;;;;;;21.97;11.33;;;;;;;6.03;82.52;100593.17;2185087;80;21041;-74
2022/10/31 04:06:43;;;;;;;18.95;11.70;;;;;;;6.01;82.50;100593.77;2160234;80;21030;-75
2022/10/31 04:09:47;;;;;;;19.98;11.93;;;;;;;5.99;82.52;100591.25;2145751;80;20998;-74
2022/10/31 04:12:54;;;;;;;18.45;11.10;;;;;;;6.00;82.55;100596.06;2175917;80;21026;-74
2022/10/31 04:15:58;;;;;;;23.62;11.03;;;;;;;5.98;82.48;100594.02;2148461;80;21043;-75
2022/10/31 04:19:00;;;;;;;20.92;10.95;;;;;;;5.96;82.47;100597.26;2145573;80;21080;-81
2022/10/31 04:22:01;;;;;;;17.60;10.65;;;;;;;5.94;82.38;100591.27;2176526;80;20991;-75
2022/10/31 04:25:03;;;;;;;20.57;11.43;;;;;;;5.93;82.41;100591.75;2178229;80;21553;-75
2022/10/31 04:28:04;;;;;;;16.75;10.75;;;;;;;5.93;82.32;100592.20;2164028;80;20989;-75
2022/10/31 04:31:05;;;;;;;19.30;11.60;;;;;;;5.93;82.44;100590.89;2182441;80;21025;-77
2022/10/31 04:34:08;;;;;;;20.17;11.28;;;;;;;5.93;82.32;100592.20;2176926;80;21049;-75
2022/10/31 04:37:09;;;;;;;25.10;13.50;;;;;;;5.92;82.56;100593.18;2174234;80;21001;-80
2022/10/31 04:40:12;;;;;;;25.30;12.45;;;;;;;5.89;82.55;100598.22;2178479;80;21036;-74
2022/10/31 04:43:12;;;;;;;24.92;11.18;;;;;;;5.88;82.89;100600.96;2173161;80;21008;-75
2022/10/31 04:46:17;;;;;;;21.65;11.05;;;;;;;5.88;82.91;100604.42;2168504;80;21546;-74
2022/10/31 04:49:18;;;;;;;20.90;10.72;;;;;;;5.87;82.66;100607.20;2145301;81;21081;-74
2022/10/31 04:52:19;;;;;;;23.00;10.80;;;;;;;5.84;82.49;100603.84;2186958;81;20991;-76
2022/10/31 04:55:21;;;;;;;19.30;11.85;;;;;;;5.82;82.61;100614.14;2129254;81;21101;-74
2022/10/31 04:58:22;;;;;;;23.90;11.83;;;;;;;5.76;82.80;100612.84;2184845;80;21493;-74
2022/10/31 05:01:23;;;;;;;17.12;11.55;;;;;;;5.74;83.01;100607.34;2181267;80;21568;-74
2022/10/31 05:04:24;;;;;;;14.83;10.23;;;;;;;5.70;83.04;100605.44;2186221;80;20978;-74
2022/10/31 05:07:28;;;;;;;15.98;9.80;;;;;;;5.67;82.91;100607.49;2171093;80;21002;-74
2022/10/31 05:10:31;;;;;;;18.67;9.85;;;;;;;5.66;82.79;100613.25;2175753;80;21002;-75
2022/10/31 05:13:33;;;;;;;20.35;10.00;;;;;;;5.64;82.68;100607.74;2175678;80;21814;-74
2022/10/31 05:16:47;;;;;;;16.20;9.70;;;;;;;5.64;82.64;100613.84;2172545;80;21007;-75
2022/10/31 05:20:06;;;;;;;16.85;10.03;;;;;;;5.64;82.67;100612.52;2178459;80;21038;-74
2022/10/31 05:23:09;;;;;;;17.05;9.55;;;;;;;5.65;82.66;100610.72;2126104;80;21011;-75
2022/10/31 05:26:11;;;;;;;21.80;10.60;;;;;;;5.65;82.71;100615.98;2178290;80;21504;-74
2022/10/31 05:29:12;;;;;;;17.55;9.30;;;;;;;5.64;82.75;100613.84;2177762;80;21577;-74
2022/10/31 05:32:13;;;;;;;16.82;9.43;;;;;;;5.65;82.72;100618.13;2148823;80;21030;-71
2022/10/31 05:35:32;;;;;;;21.12;11.50;;;;;;;5.63;82.51;100621.36;2106224;82;21041;-73
2022/10/31 05:38:44;;;;;;;18.37;9.73;;;;;;;5.59;82.73;100618.62;2150431;81;20994;-74
2022/10/31 05:41:47;;;;;;;25.45;11.20;;;;;;;5.55;82.63;100615.90;2178782;80;21027;-73
2022/10/31 05:44:53;;;;;;;20.68;10.88;;;;;;;5.51;82.81;100624.49;2181839;80;21030;-75
2022/10/31 05:48:01;;;;;;;22.07;10.75;;;;;;;5.46;82.88;100623.19;2163525;80;21120;-74
2022/10/31 05:51:13;;;;;;;19.87;10.68;;;;;;;5.44;82.90;100623.81;2171590;80;21623;-75
2022/10/31 05:54:14;;;;;;;25.27;11.75;;;;;;;5.45;82.81;100624.16;2175042;81;21088;-74
2022/10/31 05:57:15;;;;;;;32.20;15.18;;;;;;;5.42;82.73;100623.09;2166523;80;21071;-74
2022/10/31 06:00:17;;;;;;;19.67;12.55;;;;;;;5.36;82.86;100622.61;2187830;80;21100;-78
2022/10/31 06:03:24;;;;;;;31.77;15.83;;;;;;;5.37;82.84;100632.16;2166788;80;21075;-75
2022/10/31 06:06:27;;;;;;;27.48;14.63;;;;;;;5.37;82.99;100635.28;2161828;80;21061;-74
2022/10/31 06:09:28;;;;;;;30.90;13.85;;;;;;;5.37;83.05;100628.70;2184030;80;21505;-73
2022/10/31 06:12:30;;;;;;;26.93;12.88;;;;;;;5.46;83.29;100629.77;2156593;81;21715;-73
2022/10/31 06:15:48;;;;;;;20.50;12.37;;;;;;;5.54;83.51;100628.20;2210409;79;21002;-77
2022/10/31 06:18:49;;;;;;;19.57;11.73;;;;;;;5.74;83.84;100634.98;2198382;79;21113;-72
2022/10/31 06:21:51;;;;;;;20.37;11.20;;;;;;;5.94;83.89;100629.01;2142482;81;21014;-73
2022/10/31 06:24:52;;;;;;;13.65;9.90;;;;;;;6.17;83.71;100634.20;2223128;79;21539;-74
2022/10/31 06:28:10;;;;;;;18.85;11.18;;;;;;;6.35;83.49;100639.75;2192395;80;21015;-74
2022/10/31 06:31:22;;;;;;;20.57;12.05;;;;;;;6.65;83.70;100641.64;2204180;80;21493;-75
2022/10/31 06:34:24;;;;;;;16.23;11.25;;;;;;;6.98;83.85;100646.33;2190282;79;21082;-77
2022/10/31 06:37:25;;;;;;;23.73;11.88;;;;;;;7.29;83.83;100648.49;2176199;80;21052;-77
2022/10/31 06:40:29;;;;;;;21.95;12.15;;;;;;;7.56;83.33;100650.55;2181145;80;21095;-76
2022/10/31 06:43:34;;;;;;;18.67;12.05;;;;;;;7.81;83.20;100657.16;2184255;80;21045;-76
2022/10/31 06:46:49;;;;;;;26.50;15.13;;;;;;;8.12;83.19;100653.94;2192206;80;21064;-76
2022/10/31 06:50:00;;;;;;;28.05;14.20;;;;;;;8.46;83.02;100661.00;2170617;80;21023;-73
2022/10/31 06:53:02;;;;;;;25.45;14.55;;;;;;;8.85;83.01;100664.10;2201005;80;21095;-75
2022/10/31 06:56:04;;;;;;;42.23;23.80;;;;;;;9.15;82.53;100662.56;2200900;79;20981;-72
2022/10/31 06:59:07;;;;;;;30.10;17.27;;;;;;;9.36;82.20;100666.31;2205336;80;21042;-73
2022/10/31 07:02:22;;;;;;;29.32;15.40;;;;;;;9.59;82.31;100669.41;2207909;78;21066;-73
2022/10/31 07:05:25;;;;;;;31.20;15.35;;;;;;;9.80;82.11;100671.83;2204138;80;21049;-73
2022/10/31 07:08:26;;;;;;;25.52;14.53;;;;;;;10.00;81.81;100665.09;2206349;80;21620;-73
2022/10/31 07:11:28;;;;;;;28.52;17.15;;;;;;;10.00;81.81;100665.09;2153335;80;21044;-72
2022/10/31 07:14:30;;;;;;;29.87;16.73;;;;;;;10.03;81.55;100673.57;2176316;79;21148;-79
2022/10/31 07:17:31;;;;;;;31.48;16.75;;;;;;;10.09;81.66;100675.62;2160876;80;20992;-74
2022/10/31 07:20:34;;;;;;;29.72;15.90;;;;;;;10.09;81.70;100677.44;2178626;80;21041;-72
2022/10/31 07:23:37;;;;;;;23.70;15.93;;;;;;;10.13;82.06;100678.80;2168962;80;21069;-73
2022/10/31 07:26:47;;;;;;;26.80;15.60;;;;;;;10.28;82.04;100685.30;2136315;80;21073;-72
2022/10/31 07:29:48;;;;;;;23.67;14.23;;;;;;;10.36;82.01;100679.71;2188964;80;21084;-73
2022/10/31 07:32:51;;;;;;;26.65;14.93;;;;;;;10.48;82.08;100685.97;2183206;80;21034;-74
2022/10/31 07:35:53;;;;;;;28.15;14.38;;;;;;;10.64;82.10;100691.07;2184828;80;21036;-75
2022/10/31 07:38:58;;;;;;;27.48;15.23;;;;;;;10.82;82.23;100687.08;2184224;81;21006;-74
2022/10/31 07:41:59;;;;;;;27.22;15.08;;;;;;;11.06;82.21;100681.92;2180684;80;21036;-74
2022/10/31 07:45:01;;;;;;;30.40;16.20;;;;;;;11.41;82.20;100685.47;2185118;80;20974;-73
2022/10/31 07:48:16;;;;;;;23.87;13.58;;;;;;;11.76;81.93;100679.12;2178995;80;21010;-76
2022/10/31 07:51:35;;;;;;;25.10;13.60;;;;;;;12.23;81.70;100691.09;2177861;81;21003;-75
2022/10/31 07:54:40;;;;;;;26.10;13.78;;;;;;;12.75;81.33;100685.47;2187744;81;21137;-73
2022/10/31 07:57:42;;;;;;;35.05;14.68;;;;;;;13.20;81.15;100676.91;2174678;81;21109;-74
2022/10/31 08:00:46;;;;;;;23.73;12.70;;;;;;;13.68;80.76;100689.81;2181930;80;21029;-74
2022/10/31 08:03:49;;;;;;;22.25;12.10;;;;;;;14.16;80.35;100684.88;2187556;81;21037;-75
2022/10/31 08:07:07;;;;;;;23.90;12.78;;;;;;;14.65;79.49;100684.07;2124907;83;21056;-74
2022/10/31 08:10:10;;;;;;;23.95;11.73;;;;;;;15.05;78.76;100688.72;2180749;81;20974;-75
2022/10/31 08:13:13;;;;;;;21.23;11.78;;;;;;;15.42;78.01;100685.66;2176647;80;21054;-74
2022/10/31 08:16:16;;;;;;;24.07;12.03;;;;;;;15.73;77.44;100685.98;2194820;80;21033;-75
2022/10/31 08:19:19;;;;;;;22.32;13.22;;;;;;;16.16;77.47;100682.06;2190815;81;21562;-74
2022/10/31 08:22:20;;;;;;;20.95;11.22;;;;;;;16.59;76.43;100685.59;2183978;81;21611;-75
2022/10/31 08:25:23;;;;;;;26.10;11.93;;;;;;;16.80;75.52;100681.56;2198700;80;21066;-74
2022/10/31 08:28:25;;;;;;;22.32;11.30;;;;;;;17.12;75.12;100687.88;2181783;81;21038;-75
2022/10/31 08:31:28;;;;;;;19.75;11.88;;;;;;;17.39;74.39;100683.53;2185735;81;20987;-76
2022/10/31 08:34:48;;;;;;;19.27;11.65;;;;;;;17.66;73.95;100689.87;2183762;80;21054;-73
2022/10/31 08:38:12;;;;;;;20.00;10.95;;;;;;;17.97;73.51;100693.44;2064966;84;21054;-73
2022/10/31 08:41:14;;;;;;;29.07;13.90;;;;;;;18.34;73.12;100692.08;2052487;83;21070;-72
2022/10/31 08:44:16;;;;;;;28.65;14.58;;;;;;;18.56;71.75;100688.70;2163012;81;21002;-73
2022/10/31 08:47:18;;;;;;;29.87;12.33;;;;;;;18.73;71.25;100689.66;2158007;81;21018;-72
2022/10/31 08:50:21;;;;;;;19.57;9.78;;;;;;;18.87;71.05;100688.66;2184318;80;21576;-73
2022/10/31 08:53:23;;;;;;;21.65;9.75;;;;;;;19.05;70.40;100693.38;2194492;81;21010;-72
2022/10/31 08:56:26;;;;;;;29.15;9.23;;;;;;;19.17;69.82;100684.98;2192647;80;21006;-76
2022/10/31 08:59:27;;;;;;;20.02;8.18;;;;;;;19.31;68.50;100681.75;2189962;81;22026;-73
2022/10/31 09:02:38;;;;;;;20.65;8.48;;;;;;;19.32;68.37;100679.39;2162160;81;21113;-72
2022/10/31 09:05:39;;;;;;;19.48;7.75;;;;;;;19.44;67.93;100683.59;2180080;81;20994;-72
2022/10/31 09:08:43;;;;;;;20.23;9.38;;;;;;;19.60;67.18;100679.62;2188563;80;20994;-71
2022/10/31 09:11:46;;;;;;;13.48;7.55;;;;;;;19.61;66.82;100683.95;2186407;80;21053;-70
2022/10/31 09:14:52;;;;;;;17.40;7.55;;;;;;;19.71;66.10;100674.95;2150436;81;20987;-71
2022/10/31 09:17:57;;;;;;;17.65;9.10;;;;;;;19.65;64.95;100679.33;2178589;81;21300;-70
2022/10/31 09:21:01;;;;;;;19.80;8.20;;;;;;;19.59;65.05;100681.46;2168761;81;21506;-71
2022/10/31 09:24:05;;;;;;;20.85;8.65;;;;;;;19.57;64.69;100684.05;2190109;81;21113;-71
2022/10/31 09:27:08;;;;;;;14.05;7.92;;;;;;;19.61;64.07;100682.61;2202981;80;21057;-70
2022/10/31 09:30:12;;;;;;;12.75;7.85;;;;;;;19.56;63.56;100688.62;2202841;80;21062;-72
2022/10/31 09:33:15;;;;;;;16.70;8.28;;;;;;;19.53;62.65;100682.84;2179719;81;21392;-73
2022/10/31 09:36:18;;;;;;;22.67;9.60;;;;;;;19.46;62.46;100685.56;2187562;81;20998;-75
2022/10/31 09:39:20;;;;;;;18.05;8.45;;;;;;;19.49;62.72;100682.45;2164347;81;20978;-75
2022/10/31 09:42:38;;;;;;;17.42;8.58;;;;;;;19.53;62.36;100683.66;2192435;80;21489;-79
2022/10/31 09:46:17;;;;;;;13.65;7.78;;;;;;;19.62;62.61;100685.59;2195903;79;21909;-82
2022/10/31 09:50:02;;;;;;;18.25;8.53;;;;;;;19.58;61.83;100683.04;2190744;81;21027;-79
2022/10/31 09:53:12;;;;;;;18.30;8.00;;;;;;;19.72;62.01;100688.71;2193390;81;21015;-78
2022/10/31 09:56:18;;;;;;;14.05;6.55;;;;;;;19.78;62.05;100682.47;2178512;81;21099;-78
2022/10/31 09:59:31;;;;;;;21.95;8.45;;;;;;;19.88;61.80;100684.72;2183207;80;21060;-79
2022/10/31 10:02:55;;;;;;;17.30;7.53;;;;;;;19.80;61.31;100685.78;2184758;80;21481;-79
2022/10/31 10:06:17;;;;;;;18.10;7.80;;;;;;;19.92;61.36;100683.23;2192750;80;21041;-79
2022/10/31 10:09:36;;;;;;;15.48;7.30;;;;;;;19.95;61.01;100688.19;2189143;80;21125;-79
2022/10/31 10:13:21;;;;;;;17.67;7.73;;;;;;;20.07;60.72;100687.81;2159585;81;21514;-79
2022/10/31 10:16:48;;;;;;;16.70;8.55;;;;;;;20.18;60.51;100693.04;2193350;80;21071;-78
2022/10/31 10:20:15;;;;;;;11.35;6.33;;;;;;;20.21;59.12;100683.70;2185317;80;21651;-77
2022/10/31 10:23:37;;;;;;;20.25;7.00;;;;;;;20.22;60.25;100680.80;2158660;81;20986;-77
2022/10/31 10:26:43;;;;;;;19.30;7.22;;;;;;;20.32;59.91;100683.83;2181908;80;20979;-77
2022/10/31 10:29:53;;;;;;;13.93;6.92;;;;;;;20.37;59.89;100683.19;2183779;80;21516;-78
2022/10/31 10:33:04;;;;;;;16.40;7.55;;;;;;;20.59;59.78;100686.39;2186718;80;21033;-79
2022/10/31 10:36:23;;;;;;;13.83;7.40;;;;;;;20.63;58.79;100680.03;2196203;81;21021;-79
2022/10/31 10:39:34;;;;;;;16.90;7.92;;;;;;;20.58;58.89;100676.14;2184358;80;21061;-79
2022/10/31 10:49:51;;;;;;;18.27;6.10;;;;;;;20.55;59.13;100679.27;2184850;80;21103;-79
2022/10/31 10:53:31;;;;;;;14.68;7.12;;;;;;;20.53;59.03;100666.53;2193521;80;20989;-83
2022/10/31 10:56:55;;;;;;;12.60;6.50;;;;;;;20.66;59.04;100668.28;2185638;80;21034;-81
2022/10/31 10:59:59;;;;;;;;;;;;;;;20.72;58.94;100658.48;2192099;80;21477;-81
2022/10/31 11:03:00;;;;;;;19.23;6.83;;;;;;;20.73;58.52;100660.16;2188738;81;20188;-79
2022/10/31 11:06:01;;;;;;;14.15;7.22;;;;;;;20.70;58.45;100660.59;2189829;80;21596;-78
2022/10/31 11:09:11;;;;;;;18.62;7.10;;;;;;;20.74;58.45;100653.70;2154757;80;21009;-83
2022/10/31 11:12:33;;;;;;;11.20;6.20;;;;;;;20.75;58.21;100653.50;2189056;80;20998;-79
2022/10/31 11:15:41;;;;;;;12.20;6.12;;;;;;;20.74;58.34;100656.40;2177602;80;21048;-80
2022/10/31 11:18:46;;;;;;;16.73;6.85;;;;;;;20.88;58.32;100651.72;2174533;79;20998;-78
2022/10/31 11:21:49;;;;;;;13.83;6.17;;;;;;;20.96;58.22;100654.95;2197076;80;21532;-79
2022/10/31 11:24:54;;;;;;;14.25;6.30;;;;;;;20.96;57.81;100644.69;2202521;80;21120;-79
2022/10/31 11:28:03;;;;;;;17.65;7.00;;;;;;;20.94;57.71;100649.47;2174717;80;21096;-79
2022/10/31 11:31:13;;;;;;;15.40;6.90;;;;;;;20.92;57.51;100641.63;2193402;80;21602;-79
2022/10/31 11:34:37;;;;;;;15.15;6.83;;;;;;;20.88;57.59;100637.70;2192102;80;21040;-79
2022/10/31 11:37:43;;;;;;;18.20;6.75;;;;;;;20.88;57.78;100644.45;2170425;80;20969;-79
2022/10/31 11:41:17;;;;;;;14.80;5.95;;;;;;;20.89;57.67;100638.02;2202386;79;21332;-77
2022/10/31 11:44:26;;;;;;;13.25;5.40;;;;;;;20.94;57.58;100638.69;2160967;81;21042;-79
2022/10/31 11:47:32;;;;;;;14.78;6.22;;;;;;;21.02;57.66;100638.40;2182247;81;20975;-78
2022/10/31 11:50:42;;;;;;;18.75;6.92;;;;;;;21.11;56.99;100640.28;2179954;80;21068;-77
2022/10/31 11:53:51;;;;;;;18.92;6.45;;;;;;;21.01;56.68;100629.48;2177638;80;21042;-79
2022/10/31 11:56:52;;;;;;;14.23;6.40;;;;;;;21.00;57.18;100635.91;2180350;80;20938;-79
2022/10/31 11:59:57;;;;;;;15.25;5.95;;;;;;;21.10;57.17;100635.41;2184825;81;20986;-80
2022/10/31 12:03:24;;;;;;;19.02;6.65;;;;;;;21.27;57.38;100639.70;2185210;80;21042;-77
2022/10/31 12:06:34;;;;;;;14.63;6.20;;;;;;;21.30;57.04;100637.08;2177726;81;21076;-81
2022/10/31 12:09:37;;;;;;;16.77;5.90;;;;;;;21.26;56.88;100637.53;2183608;80;21014;-79
2022/10/31 12:12:55;;;;;;;10.20;5.17;;;;;;;21.31;56.97;100633.31;2189527;80;21021;-80
2022/10/31 12:16:02;;;;;;;15.80;6.47;;;;;;;21.42;57.33;100633.95;2182486;81;21489;-79
2022/10/31 12:19:17;;;;;;;15.10;6.22;;;;;;;21.54;56.92;100638.05;2184174;80;21548;-79
2022/10/31 12:23:02;;;;;;;12.60;5.80;;;;;;;21.57;56.55;100634.91;2182406;81;21068;-79
2022/10/31 12:26:33;;;;;;;9.88;6.45;;;;;;;21.48;56.13;100630.34;2190605;80;21118;-79
2022/10/31 12:29:46;;;;;;;13.08;5.50;;;;;;;21.43;56.76;100631.03;2190723;80;20991;-77
2022/10/31 12:33:15;;;;;;;17.02;6.92;;;;;;;21.45;56.77;100630.79;2184189;80;21030;-76
2022/10/31 12:36:39;;;;;;;10.50;6.00;;;;;;;21.42;56.56;100623.97;2186262;80;21053;-78
2022/10/31 12:40:20;;;;;;;18.62;6.37;;;;;;;21.28;56.17;100632.71;2176877;80;20993;-75
2022/10/31 12:44:08;;;;;;;14.05;5.92;;;;;;;21.19;56.76;100625.15;2184762;80;21556;-74
2022/10/31 12:47:38;;;;;;;16.23;7.25;;;;;;;21.28;56.45;100621.09;2187713;81;21034;-77
2022/10/31 12:51:04;;;;;;;18.87;6.70;;;;;;;21.18;56.39;100624.86;2182187;81;20991;-81
2022/10/31 12:54:14;;;;;;;18.60;7.90;;;;;;;21.17;56.73;100620.49;2164527;81;20999;-73
2022/10/31 12:57:40;;;;;;;14.95;6.37;;;;;;;21.15;56.47;100622.08;2180243;80;21533;-78
2022/10/31 13:00:46;;;;;;;16.73;6.58;;;;;;;21.10;56.67;100623.27;2182965;81;20999;-78
2022/10/31 13:04:14;;;;;;;14.45;6.22;;;;;;;21.09;56.96;100618.94;2186168;81;21037;-74
2022/10/31 13:07:37;;;;;;;14.70;6.08;;;;;;;21.17;57.07;100613.75;2190562;81;20995;-78
2022/10/31 13:10:49;;;;;;;14.43;7.20;;;;;;;21.12;56.76;100616.29;2161436;81;21010;-77
2022/10/31 13:14:19;;;;;;;21.68;7.40;;;;;;;21.08;56.84;100609.17;2176844;81;21037;-77
2022/10/31 13:17:38;;;;;;;8.48;5.40;;;;;;;20.95;56.80;100607.45;2140527;81;21057;-80
2022/10/31 13:20:43;;;;;;;;;;;;;;;20.92;57.04;100602.52;2189556;80;21498;-79
2022/10/31 13:23:49;;;;;;;11.53;5.15;;;;;;;20.89;57.17;100600.27;2182864;80;20148;-79
2022/10/31 13:26:54;;;;;;;18.73;6.15;;;;;;;20.77;57.16;100603.37;2192060;80;21479;-77
2022/10/31 13:30:06;;;;;;;12.03;6.05;;;;;;;20.75;57.53;100598.72;2183776;80;21046;-78
2022/10/31 13:33:19;;;;;;;11.33;6.28;;;;;;;20.79;57.58;100595.36;2160851;81;21474;-78
2022/10/31 13:36:41;;;;;;;16.37;6.65;;;;;;;20.89;57.85;100598.06;2179618;80;20998;-77
2022/10/31 13:40:17;;;;;;;17.25;6.20;;;;;;;20.89;57.55;100597.56;2203057;80;21005;-78
2022/10/31 13:43:36;;;;;;;14.50;6.22;;;;;;;20.77;57.74;100599.33;2187132;80;21101;-79
2022/10/31 13:46:41;;;;;;;20.37;6.72;;;;;;;20.67;57.82;100590.94;2219643;79;20983;-78
2022/10/31 13:49:42;;;;;;;15.68;6.20;;;;;;;20.60;57.88;100590.45;2164960;81;21521;-78
2022/10/31 13:52:43;;;;;;;14.18;5.92;;;;;;;20.48;58.12;100592.20;2193534;79;21140;-78
2022/10/31 13:56:13;;;;;;;17.10;6.22;;;;;;;20.41;58.23;100583.33;2200192;80;21226;-78
2022/10/31 13:59:22;;;;;;;13.05;6.15;;;;;;;20.36;58.49;100593.97;2178451;80;21172;-76
2022/10/31 14:02:29;;;;;;;13.50;5.65;;;;;;;20.26;58.55;100591.75;2190666;79;21628;-79
2022/10/31 14:05:35;;;;;;;15.30;5.83;;;;;;;20.19;58.67;100590.98;2153629;80;21006;-78
2022/10/31 14:08:40;;;;;;;19.67;7.08;;;;;;;20.14;58.79;100586.77;2171797;79;21046;-79
2022/10/31 14:11:46;;;;;;;15.48;7.33;;;;;;;20.13;58.80;100587.80;2203029;79;21010;-79
2022/10/31 14:14:52;;;;;;;18.07;6.80;;;;;;;20.11;59.01;100578.59;2216803;79;21033;-79
2022/10/31 14:18:05;;;;;;;11.48;6.35;;;;;;;20.09;59.02;100581.20;2183953;80;21021;-79
2022/10/31 14:21:29;;;;;;;13.25;6.47;;;;;;;20.05;59.12;100585.39;2179693;80;21628;-79
2022/10/31 14:24:34;;;;;;;19.02;6.95;;;;;;;19.96;59.20;100587.49;2210573;80;21025;-79
2022/10/31 14:27:46;;;;;;;10.53;6.12;;;;;;;19.90;59.32;100582.98;2189145;80;21068;-79
2022/10/31 14:30:57;;;;;;;14.98;6.55;;;;;;;19.82;59.39;100580.05;2189122;80;21120;-79
2022/10/31 14:34:22;;;;;;;17.95;6.83;;;;;;;19.75;59.50;100580.59;2174924;80;21064;-79
2022/10/31 14:38:04;;;;;;;14.80;6.67;;;;;;;19.62;59.65;100576.06;2195703;79;21049;-78